sensor_id;sensor_type;location;lat;lon;timestamp;P1;durP1;ratioP1;P2;durP2;ratioP2
66272;SDS011;58450;52.150;4.466;2023-06-10T00:02:26;18.63;;;14.35;;
66272;SDS011;58450;52.150;4.466;2023-06-10T00:04:54;21.42;;;14.98;;
66272;SDS011;58450;52.150;4.466;2023-06-10T00:07:22;22.00;;;15.02;;
66272;SDS011;58450;52.150;4.466;2023-06-10T00:09:50;20.77;;;14.63;;
66272;SDS011;58450;52.150;4.466;2023-06-10T00:12:17;21.23;;;14.82;;
66272;SDS011;58450;52.150;4.466;2023-06-10T00:14:46;20.10;;;13.77;;
66272;SDS011;58450;52.150;4.466;2023-06-10T00:17:15;22.02;;;14.15;;
66272;SDS011;58450;52.150;4.466;2023-06-10T00:19:45;18.73;;;13.00;;
66272;SDS011;58450;52.150;4.466;2023-06-10T00:22:12;21.23;;;13.35;;
66272;SDS011;58450;52.150;4.466;2023-06-10T00:24:40;16.88;;;11.90;;
66272;SDS011;58450;52.150;4.466;2023-06-10T00:27:07;17.67;;;11.77;;
66272;SDS011;58450;52.150;4.466;2023-06-10T00:29:35;16.27;;;10.50;;
66272;SDS011;58450;52.150;4.466;2023-06-10T00:32:03;18.17;;;10.30;;
66272;SDS011;58450;52.150;4.466;2023-06-10T00:34:31;15.75;;;9.50;;
66272;SDS011;58450;52.150;4.466;2023-06-10T00:37:00;13.48;;;8.70;;
66272;SDS011;58450;52.150;4.466;2023-06-10T00:39:28;12.82;;;7.95;;
66272;SDS011;58450;52.150;4.466;2023-06-10T00:41:55;14.57;;;7.65;;
66272;SDS011;58450;52.150;4.466;2023-06-10T00:44:23;11.32;;;6.93;;
66272;SDS011;58450;52.150;4.466;2023-06-10T00:46:50;10.85;;;6.45;;
66272;SDS011;58450;52.150;4.466;2023-06-10T00:49:21;10.32;;;6.03;;
66272;SDS011;58450;52.150;4.466;2023-06-10T00:51:48;10.15;;;6.25;;
66272;SDS011;58450;52.150;4.466;2023-06-10T00:54:18;9.07;;;5.25;;
66272;SDS011;58450;52.150;4.466;2023-06-10T00:56:47;8.80;;;5.53;;
66272;SDS011;58450;52.150;4.466;2023-06-10T00:59:16;9.82;;;5.65;;
66272;SDS011;58450;52.150;4.466;2023-06-10T01:01:45;9.02;;;5.32;;
66272;SDS011;58450;52.150;4.466;2023-06-10T01:04:13;9.07;;;5.07;;
66272;SDS011;58450;52.150;4.466;2023-06-10T01:06:48;9.45;;;5.80;;
66272;SDS011;58450;52.150;4.466;2023-06-10T01:09:28;9.00;;;5.10;;
66272;SDS011;58450;52.150;4.466;2023-06-10T01:12:09;9.48;;;5.57;;
66272;SDS011;58450;52.150;4.466;2023-06-10T01:14:45;9.43;;;5.78;;
66272;SDS011;58450;52.150;4.466;2023-06-10T01:17:14;10.93;;;6.35;;
66272;SDS011;58450;52.150;4.466;2023-06-10T01:19:43;11.25;;;6.60;;
66272;SDS011;58450;52.150;4.466;2023-06-10T01:22:12;11.65;;;6.70;;
66272;SDS011;58450;52.150;4.466;2023-06-10T01:24:41;10.13;;;6.63;;
66272;SDS011;58450;52.150;4.466;2023-06-10T01:27:10;12.30;;;7.13;;
66272;SDS011;58450;52.150;4.466;2023-06-10T01:29:43;12.05;;;7.15;;
66272;SDS011;58450;52.150;4.466;2023-06-10T01:32:21;12.35;;;7.55;;
66272;SDS011;58450;52.150;4.466;2023-06-10T01:35:01;12.27;;;7.28;;
66272;SDS011;58450;52.150;4.466;2023-06-10T01:37:33;11.88;;;7.03;;
66272;SDS011;58450;52.150;4.466;2023-06-10T01:40:05;10.50;;;7.03;;
66272;SDS011;58450;52.150;4.466;2023-06-10T01:42:35;10.90;;;7.25;;
66272;SDS011;58450;52.150;4.466;2023-06-10T01:45:03;10.70;;;6.47;;
66272;SDS011;58450;52.150;4.466;2023-06-10T01:47:32;11.60;;;6.43;;
66272;SDS011;58450;52.150;4.466;2023-06-10T01:50:00;9.48;;;5.85;;
66272;SDS011;58450;52.150;4.466;2023-06-10T01:52:27;11.30;;;6.25;;
66272;SDS011;58450;52.150;4.466;2023-06-10T01:54:56;10.20;;;6.47;;
66272;SDS011;58450;52.150;4.466;2023-06-10T01:57:24;11.20;;;6.45;;
66272;SDS011;58450;52.150;4.466;2023-06-10T01:59:51;12.60;;;7.18;;
66272;SDS011;58450;52.150;4.466;2023-06-10T02:02:19;12.43;;;7.30;;
66272;SDS011;58450;52.150;4.466;2023-06-10T02:04:47;11.90;;;7.63;;
66272;SDS011;58450;52.150;4.466;2023-06-10T02:07:15;14.10;;;7.97;;
66272;SDS011;58450;52.150;4.466;2023-06-10T02:09:42;12.05;;;8.20;;
66272;SDS011;58450;52.150;4.466;2023-06-10T02:12:11;13.23;;;8.15;;
66272;SDS011;58450;52.150;4.466;2023-06-10T02:14:39;12.05;;;8.57;;
66272;SDS011;58450;52.150;4.466;2023-06-10T02:17:07;13.55;;;8.38;;
66272;SDS011;58450;52.150;4.466;2023-06-10T02:19:38;12.88;;;8.75;;
66272;SDS011;58450;52.150;4.466;2023-06-10T02:22:08;12.57;;;8.73;;
66272;SDS011;58450;52.150;4.466;2023-06-10T02:24:36;15.82;;;9.23;;
66272;SDS011;58450;52.150;4.466;2023-06-10T02:27:04;13.82;;;9.25;;
66272;SDS011;58450;52.150;4.466;2023-06-10T02:29:34;15.05;;;9.27;;
66272;SDS011;58450;52.150;4.466;2023-06-10T02:32:02;14.77;;;8.77;;
66272;SDS011;58450;52.150;4.466;2023-06-10T02:34:30;15.30;;;8.75;;
66272;SDS011;58450;52.150;4.466;2023-06-10T02:36:59;13.05;;;8.95;;
66272;SDS011;58450;52.150;4.466;2023-06-10T02:39:28;13.52;;;8.77;;
66272;SDS011;58450;52.150;4.466;2023-06-10T02:41:55;12.18;;;8.27;;
66272;SDS011;58450;52.150;4.466;2023-06-10T02:44:23;11.40;;;7.55;;
66272;SDS011;58450;52.150;4.466;2023-06-10T02:46:52;11.20;;;7.85;;
66272;SDS011;58450;52.150;4.466;2023-06-10T02:49:19;13.07;;;7.93;;
66272;SDS011;58450;52.150;4.466;2023-06-10T02:51:47;12.15;;;7.38;;
66272;SDS011;58450;52.150;4.466;2023-06-10T02:54:14;13.45;;;7.63;;
66272;SDS011;58450;52.150;4.466;2023-06-10T02:56:42;11.05;;;7.30;;
66272;SDS011;58450;52.150;4.466;2023-06-10T02:59:09;11.48;;;7.20;;
66272;SDS011;58450;52.150;4.466;2023-06-10T03:01:37;11.65;;;6.80;;
66272;SDS011;58450;52.150;4.466;2023-06-10T03:04:06;10.75;;;6.35;;
66272;SDS011;58450;52.150;4.466;2023-06-10T03:06:34;9.75;;;6.25;;
66272;SDS011;58450;52.150;4.466;2023-06-10T03:09:04;9.90;;;6.65;;
66272;SDS011;58450;52.150;4.466;2023-06-10T03:11:32;12.00;;;7.15;;
66272;SDS011;58450;52.150;4.466;2023-06-10T03:13:59;13.15;;;7.50;;
66272;SDS011;58450;52.150;4.466;2023-06-10T03:16:27;10.15;;;6.47;;
66272;SDS011;58450;52.150;4.466;2023-06-10T03:18:56;10.45;;;6.80;;
66272;SDS011;58450;52.150;4.466;2023-06-10T03:21:25;9.63;;;5.97;;
66272;SDS011;58450;52.150;4.466;2023-06-10T03:23:52;10.60;;;6.70;;
66272;SDS011;58450;52.150;4.466;2023-06-10T03:26:20;9.90;;;6.47;;
66272;SDS011;58450;52.150;4.466;2023-06-10T03:28:48;8.85;;;6.18;;
66272;SDS011;58450;52.150;4.466;2023-06-10T03:31:15;8.95;;;6.28;;
66272;SDS011;58450;52.150;4.466;2023-06-10T03:33:43;10.77;;;6.53;;
66272;SDS011;58450;52.150;4.466;2023-06-10T03:36:11;8.98;;;6.70;;
66272;SDS011;58450;52.150;4.466;2023-06-10T03:38:40;11.63;;;6.75;;
66272;SDS011;58450;52.150;4.466;2023-06-10T03:41:07;10.82;;;7.00;;
66272;SDS011;58450;52.150;4.466;2023-06-10T03:43:34;11.35;;;7.10;;
66272;SDS011;58450;52.150;4.466;2023-06-10T03:46:02;11.32;;;7.03;;
66272;SDS011;58450;52.150;4.466;2023-06-10T03:48:29;12.15;;;8.10;;
66272;SDS011;58450;52.150;4.466;2023-06-10T03:50:57;13.60;;;8.00;;
66272;SDS011;58450;52.150;4.466;2023-06-10T03:53:25;11.63;;;7.70;;
66272;SDS011;58450;52.150;4.466;2023-06-10T03:55:54;14.15;;;8.13;;
66272;SDS011;58450;52.150;4.466;2023-06-10T03:58:23;15.98;;;9.32;;
66272;SDS011;58450;52.150;4.466;2023-06-10T04:00:50;17.02;;;9.50;;
66272;SDS011;58450;52.150;4.466;2023-06-10T04:03:18;13.80;;;9.07;;
66272;SDS011;58450;52.150;4.466;2023-06-10T04:05:47;13.10;;;9.05;;
66272;SDS011;58450;52.150;4.466;2023-06-10T04:08:15;16.02;;;9.15;;
66272;SDS011;58450;52.150;4.466;2023-06-10T04:10:43;16.73;;;9.25;;
66272;SDS011;58450;52.150;4.466;2023-06-10T04:13:12;13.35;;;8.32;;
66272;SDS011;58450;52.150;4.466;2023-06-10T04:15:40;14.35;;;8.63;;
66272;SDS011;58450;52.150;4.466;2023-06-10T04:18:08;13.43;;;8.60;;
66272;SDS011;58450;52.150;4.466;2023-06-10T04:20:35;14.18;;;8.27;;
66272;SDS011;58450;52.150;4.466;2023-06-10T04:23:03;12.25;;;8.05;;
66272;SDS011;58450;52.150;4.466;2023-06-10T04:25:31;12.73;;;8.05;;
66272;SDS011;58450;52.150;4.466;2023-06-10T04:27:58;13.10;;;8.43;;
66272;SDS011;58450;52.150;4.466;2023-06-10T04:30:27;12.73;;;8.38;;
66272;SDS011;58450;52.150;4.466;2023-06-10T04:32:54;12.52;;;8.57;;
66272;SDS011;58450;52.150;4.466;2023-06-10T04:35:22;14.23;;;8.80;;
66272;SDS011;58450;52.150;4.466;2023-06-10T04:37:52;14.93;;;8.50;;
66272;SDS011;58450;52.150;4.466;2023-06-10T04:40:20;12.30;;;7.97;;
66272;SDS011;58450;52.150;4.466;2023-06-10T04:42:48;13.50;;;7.85;;
66272;SDS011;58450;52.150;4.466;2023-06-10T04:45:16;12.85;;;7.80;;
66272;SDS011;58450;52.150;4.466;2023-06-10T04:47:44;10.65;;;6.82;;
66272;SDS011;58450;52.150;4.466;2023-06-10T04:50:12;12.25;;;7.25;;
66272;SDS011;58450;52.150;4.466;2023-06-10T04:52:39;11.43;;;7.40;;
66272;SDS011;58450;52.150;4.466;2023-06-10T04:55:08;10.63;;;6.50;;
66272;SDS011;58450;52.150;4.466;2023-06-10T04:57:36;12.57;;;7.45;;
66272;SDS011;58450;52.150;4.466;2023-06-10T05:00:04;11.23;;;6.90;;
66272;SDS011;58450;52.150;4.466;2023-06-10T05:02:34;10.85;;;7.00;;
66272;SDS011;58450;52.150;4.466;2023-06-10T05:05:03;10.40;;;6.70;;
66272;SDS011;58450;52.150;4.466;2023-06-10T05:07:31;11.90;;;7.15;;
66272;SDS011;58450;52.150;4.466;2023-06-10T05:09:59;12.07;;;7.15;;
66272;SDS011;58450;52.150;4.466;2023-06-10T05:12:27;12.00;;;7.07;;
66272;SDS011;58450;52.150;4.466;2023-06-10T05:14:54;9.82;;;6.50;;
66272;SDS011;58450;52.150;4.466;2023-06-10T05:17:22;10.65;;;6.93;;
66272;SDS011;58450;52.150;4.466;2023-06-10T05:19:51;13.10;;;7.60;;
66272;SDS011;58450;52.150;4.466;2023-06-10T05:22:20;10.43;;;6.78;;
66272;SDS011;58450;52.150;4.466;2023-06-10T05:24:49;13.05;;;7.78;;
66272;SDS011;58450;52.150;4.466;2023-06-10T05:27:18;11.75;;;7.40;;
66272;SDS011;58450;52.150;4.466;2023-06-10T05:29:45;11.10;;;7.50;;
66272;SDS011;58450;52.150;4.466;2023-06-10T05:32:13;13.32;;;7.40;;
66272;SDS011;58450;52.150;4.466;2023-06-10T05:34:40;10.65;;;7.18;;
66272;SDS011;58450;52.150;4.466;2023-06-10T05:37:08;11.40;;;7.18;;
66272;SDS011;58450;52.150;4.466;2023-06-10T05:39:37;10.77;;;6.93;;
66272;SDS011;58450;52.150;4.466;2023-06-10T05:42:05;11.70;;;6.40;;
66272;SDS011;58450;52.150;4.466;2023-06-10T05:44:34;9.07;;;6.20;;
66272;SDS011;58450;52.150;4.466;2023-06-10T05:47:02;11.48;;;5.97;;
66272;SDS011;58450;52.150;4.466;2023-06-10T05:49:31;9.48;;;5.90;;
66272;SDS011;58450;52.150;4.466;2023-06-10T05:51:58;9.27;;;6.05;;
66272;SDS011;58450;52.150;4.466;2023-06-10T05:54:26;9.45;;;6.05;;
66272;SDS011;58450;52.150;4.466;2023-06-10T05:56:55;10.20;;;5.82;;
66272;SDS011;58450;52.150;4.466;2023-06-10T05:59:22;8.55;;;5.85;;
66272;SDS011;58450;52.150;4.466;2023-06-10T06:01:50;10.38;;;5.65;;
66272;SDS011;58450;52.150;4.466;2023-06-10T06:04:17;9.45;;;5.25;;
66272;SDS011;58450;52.150;4.466;2023-06-10T06:06:45;8.27;;;5.05;;
66272;SDS011;58450;52.150;4.466;2023-06-10T06:09:12;7.63;;;4.80;;
66272;SDS011;58450;52.150;4.466;2023-06-10T06:11:40;8.05;;;4.90;;
66272;SDS011;58450;52.150;4.466;2023-06-10T06:14:09;7.35;;;4.80;;
66272;SDS011;58450;52.150;4.466;2023-06-10T06:16:37;6.95;;;4.50;;
66272;SDS011;58450;52.150;4.466;2023-06-10T06:19:05;8.25;;;4.88;;
66272;SDS011;58450;52.150;4.466;2023-06-10T06:21:33;6.45;;;4.25;;
66272;SDS011;58450;52.150;4.466;2023-06-10T06:24:00;8.63;;;4.80;;
66272;SDS011;58450;52.150;4.466;2023-06-10T06:26:28;6.15;;;4.13;;
66272;SDS011;58450;52.150;4.466;2023-06-10T06:28:55;6.22;;;4.43;;
66272;SDS011;58450;52.150;4.466;2023-06-10T06:31:24;9.27;;;4.65;;
66272;SDS011;58450;52.150;4.466;2023-06-10T06:33:52;7.72;;;4.18;;
66272;SDS011;58450;52.150;4.466;2023-06-10T06:36:19;6.72;;;4.05;;
66272;SDS011;58450;52.150;4.466;2023-06-10T06:38:47;8.25;;;4.28;;
66272;SDS011;58450;52.150;4.466;2023-06-10T06:41:14;6.40;;;4.55;;
66272;SDS011;58450;52.150;4.466;2023-06-10T06:43:42;9.45;;;4.72;;
66272;SDS011;58450;52.150;4.466;2023-06-10T06:46:09;8.45;;;5.00;;
66272;SDS011;58450;52.150;4.466;2023-06-10T06:48:38;8.60;;;4.85;;
66272;SDS011;58450;52.150;4.466;2023-06-10T06:51:05;7.88;;;4.80;;
66272;SDS011;58450;52.150;4.466;2023-06-10T06:53:33;6.93;;;4.40;;
66272;SDS011;58450;52.150;4.466;2023-06-10T06:56:01;7.63;;;4.55;;
66272;SDS011;58450;52.150;4.466;2023-06-10T06:58:29;6.53;;;4.60;;
66272;SDS011;58450;52.150;4.466;2023-06-10T07:00:56;7.82;;;4.70;;
66272;SDS011;58450;52.150;4.466;2023-06-10T07:03:24;7.25;;;4.53;;
66272;SDS011;58450;52.150;4.466;2023-06-10T07:05:53;5.50;;;3.90;;
66272;SDS011;58450;52.150;4.466;2023-06-10T07:08:20;7.15;;;4.35;;
66272;SDS011;58450;52.150;4.466;2023-06-10T07:10:48;6.55;;;4.05;;
66272;SDS011;58450;52.150;4.466;2023-06-10T07:13:16;7.07;;;4.13;;
66272;SDS011;58450;52.150;4.466;2023-06-10T07:15:43;7.40;;;4.10;;
66272;SDS011;58450;52.150;4.466;2023-06-10T07:18:11;7.35;;;4.22;;
66272;SDS011;58450;52.150;4.466;2023-06-10T07:20:38;6.78;;;4.30;;
66272;SDS011;58450;52.150;4.466;2023-06-10T07:23:08;6.13;;;3.95;;
66272;SDS011;58450;52.150;4.466;2023-06-10T07:25:36;6.38;;;4.47;;
66272;SDS011;58450;52.150;4.466;2023-06-10T07:28:03;6.82;;;4.07;;
66272;SDS011;58450;52.150;4.466;2023-06-10T07:30:31;6.85;;;4.30;;
66272;SDS011;58450;52.150;4.466;2023-06-10T07:32:58;8.27;;;4.53;;
66272;SDS011;58450;52.150;4.466;2023-06-10T07:35:27;8.00;;;4.45;;
66272;SDS011;58450;52.150;4.466;2023-06-10T07:37:55;6.93;;;4.43;;
66272;SDS011;58450;52.150;4.466;2023-06-10T07:40:24;7.80;;;4.82;;
66272;SDS011;58450;52.150;4.466;2023-06-10T07:42:51;6.22;;;4.15;;
66272;SDS011;58450;52.150;4.466;2023-06-10T07:45:19;8.15;;;4.85;;
66272;SDS011;58450;52.150;4.466;2023-06-10T07:47:47;8.85;;;5.13;;
66272;SDS011;58450;52.150;4.466;2023-06-10T07:50:14;9.27;;;5.18;;
66272;SDS011;58450;52.150;4.466;2023-06-10T07:52:42;7.15;;;5.00;;
66272;SDS011;58450;52.150;4.466;2023-06-10T07:55:09;7.80;;;5.47;;
66272;SDS011;58450;52.150;4.466;2023-06-10T07:57:38;7.85;;;5.30;;
66272;SDS011;58450;52.150;4.466;2023-06-10T08:00:07;7.50;;;4.97;;
66272;SDS011;58450;52.150;4.466;2023-06-10T08:02:35;7.50;;;4.72;;
66272;SDS011;58450;52.150;4.466;2023-06-10T08:05:03;8.35;;;5.00;;
66272;SDS011;58450;52.150;4.466;2023-06-10T08:07:31;7.15;;;4.55;;
66272;SDS011;58450;52.150;4.466;2023-06-10T08:09:59;5.82;;;4.00;;
66272;SDS011;58450;52.150;4.466;2023-06-10T08:12:27;6.60;;;4.10;;
66272;SDS011;58450;52.150;4.466;2023-06-10T08:14:56;7.90;;;4.75;;
66272;SDS011;58450;52.150;4.466;2023-06-10T08:17:24;7.15;;;4.43;;
66272;SDS011;58450;52.150;4.466;2023-06-10T08:19:51;6.85;;;4.22;;
66272;SDS011;58450;52.150;4.466;2023-06-10T08:22:19;6.82;;;4.00;;
66272;SDS011;58450;52.150;4.466;2023-06-10T08:24:46;6.00;;;3.95;;
66272;SDS011;58450;52.150;4.466;2023-06-10T08:27:14;8.25;;;4.15;;
66272;SDS011;58450;52.150;4.466;2023-06-10T08:29:41;5.32;;;3.60;;
66272;SDS011;58450;52.150;4.466;2023-06-10T08:32:10;6.00;;;4.00;;
66272;SDS011;58450;52.150;4.466;2023-06-10T08:34:38;6.70;;;3.45;;
66272;SDS011;58450;52.150;4.466;2023-06-10T08:37:07;6.63;;;3.88;;
66272;SDS011;58450;52.150;4.466;2023-06-10T08:39:35;6.70;;;4.32;;
66272;SDS011;58450;52.150;4.466;2023-06-10T08:42:05;5.95;;;4.13;;
66272;SDS011;58450;52.150;4.466;2023-06-10T08:44:44;5.90;;;4.00;;
66272;SDS011;58450;52.150;4.466;2023-06-10T08:47:16;7.20;;;4.40;;
66272;SDS011;58450;52.150;4.466;2023-06-10T08:49:44;9.00;;;4.30;;
66272;SDS011;58450;52.150;4.466;2023-06-10T08:52:14;7.13;;;4.30;;
66272;SDS011;58450;52.150;4.466;2023-06-10T08:54:46;6.80;;;4.22;;
66272;SDS011;58450;52.150;4.466;2023-06-10T08:57:19;6.07;;;3.95;;
66272;SDS011;58450;52.150;4.466;2023-06-10T08:59:48;6.55;;;3.83;;
66272;SDS011;58450;52.150;4.466;2023-06-10T09:02:17;6.72;;;3.85;;
66272;SDS011;58450;52.150;4.466;2023-06-10T09:04:47;5.97;;;3.63;;
66272;SDS011;58450;52.150;4.466;2023-06-10T09:07:16;6.35;;;4.05;;
66272;SDS011;58450;52.150;4.466;2023-06-10T09:09:44;6.20;;;3.80;;
66272;SDS011;58450;52.150;4.466;2023-06-10T09:12:13;6.22;;;3.90;;
66272;SDS011;58450;52.150;4.466;2023-06-10T09:14:41;6.28;;;3.90;;
66272;SDS011;58450;52.150;4.466;2023-06-10T09:17:09;5.45;;;3.83;;
66272;SDS011;58450;52.150;4.466;2023-06-10T09:19:39;5.10;;;3.60;;
66272;SDS011;58450;52.150;4.466;2023-06-10T09:22:09;6.97;;;4.07;;
66272;SDS011;58450;52.150;4.466;2023-06-10T09:24:37;5.47;;;3.55;;
66272;SDS011;58450;52.150;4.466;2023-06-10T09:27:07;5.93;;;3.60;;
66272;SDS011;58450;52.150;4.466;2023-06-10T09:29:45;4.50;;;3.45;;
66272;SDS011;58450;52.150;4.466;2023-06-10T09:32:14;5.32;;;3.70;;
66272;SDS011;58450;52.150;4.466;2023-06-10T09:34:46;5.43;;;3.63;;
66272;SDS011;58450;52.150;4.466;2023-06-10T09:37:19;7.00;;;3.90;;
66272;SDS011;58450;52.150;4.466;2023-06-10T09:40:03;6.63;;;3.70;;
66272;SDS011;58450;52.150;4.466;2023-06-10T09:42:34;6.88;;;3.45;;
66272;SDS011;58450;52.150;4.466;2023-06-10T09:45:05;6.15;;;3.53;;
66272;SDS011;58450;52.150;4.466;2023-06-10T09:47:34;6.20;;;3.50;;
66272;SDS011;58450;52.150;4.466;2023-06-10T09:50:03;6.43;;;3.60;;
66272;SDS011;58450;52.150;4.466;2023-06-10T09:52:32;6.60;;;3.40;;
66272;SDS011;58450;52.150;4.466;2023-06-10T09:55:00;5.45;;;3.55;;
66272;SDS011;58450;52.150;4.466;2023-06-10T09:57:30;5.75;;;3.13;;
66272;SDS011;58450;52.150;4.466;2023-06-10T09:59:59;4.80;;;3.20;;
66272;SDS011;58450;52.150;4.466;2023-06-10T10:02:32;5.13;;;3.20;;
66272;SDS011;58450;52.150;4.466;2023-06-10T10:05:11;5.43;;;2.97;;
66272;SDS011;58450;52.150;4.466;2023-06-10T10:07:41;5.03;;;2.85;;
66272;SDS011;58450;52.150;4.466;2023-06-10T10:10:09;5.85;;;2.80;;
66272;SDS011;58450;52.150;4.466;2023-06-10T10:12:38;5.47;;;3.10;;
66272;SDS011;58450;52.150;4.466;2023-06-10T10:15:08;4.18;;;3.00;;
66272;SDS011;58450;52.150;4.466;2023-06-10T10:17:38;4.60;;;3.20;;
66272;SDS011;58450;52.150;4.466;2023-06-10T10:20:17;7.10;;;4.80;;
66272;SDS011;58450;52.150;4.466;2023-06-10T10:22:52;7.22;;;4.63;;
66272;SDS011;58450;52.150;4.466;2023-06-10T10:25:25;6.65;;;4.20;;
66272;SDS011;58450;52.150;4.466;2023-06-10T10:27:57;6.13;;;3.65;;
66272;SDS011;58450;52.150;4.466;2023-06-10T10:30:33;4.97;;;3.35;;
66272;SDS011;58450;52.150;4.466;2023-06-10T10:33:09;5.35;;;3.35;;
66272;SDS011;58450;52.150;4.466;2023-06-10T10:35:42;6.30;;;3.63;;
66272;SDS011;58450;52.150;4.466;2023-06-10T10:38:11;4.88;;;3.05;;
66272;SDS011;58450;52.150;4.466;2023-06-10T10:40:39;4.95;;;3.15;;
66272;SDS011;58450;52.150;4.466;2023-06-10T10:43:09;4.82;;;3.08;;
66272;SDS011;58450;52.150;4.466;2023-06-10T10:45:38;5.05;;;3.17;;
66272;SDS011;58450;52.150;4.466;2023-06-10T10:48:07;5.95;;;3.55;;
66272;SDS011;58450;52.150;4.466;2023-06-10T10:50:37;4.50;;;3.05;;
66272;SDS011;58450;52.150;4.466;2023-06-10T10:53:07;4.50;;;3.00;;
66272;SDS011;58450;52.150;4.466;2023-06-10T10:55:35;4.82;;;3.13;;
66272;SDS011;58450;52.150;4.466;2023-06-10T10:58:03;4.25;;;3.08;;
66272;SDS011;58450;52.150;4.466;2023-06-10T11:00:32;4.75;;;3.00;;
66272;SDS011;58450;52.150;4.466;2023-06-10T11:03:05;5.28;;;2.83;;
66272;SDS011;58450;52.150;4.466;2023-06-10T11:05:37;5.60;;;3.40;;
66272;SDS011;58450;52.150;4.466;2023-06-10T11:08:11;4.95;;;3.30;;
66272;SDS011;58450;52.150;4.466;2023-06-10T11:10:40;5.30;;;2.95;;
66272;SDS011;58450;52.150;4.466;2023-06-10T11:13:18;6.47;;;3.00;;
66272;SDS011;58450;52.150;4.466;2023-06-10T11:15:48;4.75;;;3.00;;
66272;SDS011;58450;52.150;4.466;2023-06-10T11:18:20;4.72;;;2.97;;
66272;SDS011;58450;52.150;4.466;2023-06-10T11:20:51;4.70;;;2.78;;
66272;SDS011;58450;52.150;4.466;2023-06-10T11:23:26;5.45;;;3.00;;
66272;SDS011;58450;52.150;4.466;2023-06-10T11:26:12;5.13;;;3.33;;
66272;SDS011;58450;52.150;4.466;2023-06-10T11:29:08;4.38;;;2.97;;
66272;SDS011;58450;52.150;4.466;2023-06-10T11:31:43;5.43;;;3.40;;
66272;SDS011;58450;52.150;4.466;2023-06-10T11:34:13;4.53;;;3.20;;
66272;SDS011;58450;52.150;4.466;2023-06-10T11:36:43;4.90;;;3.08;;
66272;SDS011;58450;52.150;4.466;2023-06-10T11:39:13;4.95;;;2.90;;
66272;SDS011;58450;52.150;4.466;2023-06-10T11:41:41;4.85;;;3.30;;
66272;SDS011;58450;52.150;4.466;2023-06-10T11:44:09;5.25;;;3.25;;
66272;SDS011;58450;52.150;4.466;2023-06-10T11:46:38;5.60;;;3.30;;
66272;SDS011;58450;52.150;4.466;2023-06-10T11:49:08;5.55;;;3.45;;
66272;SDS011;58450;52.150;4.466;2023-06-10T11:51:36;4.95;;;3.22;;
66272;SDS011;58450;52.150;4.466;2023-06-10T11:54:08;4.57;;;2.90;;
66272;SDS011;58450;52.150;4.466;2023-06-10T11:56:37;5.55;;;3.03;;
66272;SDS011;58450;52.150;4.466;2023-06-10T11:59:05;5.90;;;3.38;;
66272;SDS011;58450;52.150;4.466;2023-06-10T12:01:34;4.10;;;2.90;;
66272;SDS011;58450;52.150;4.466;2023-06-10T12:04:04;4.70;;;2.88;;
66272;SDS011;58450;52.150;4.466;2023-06-10T12:06:43;3.88;;;3.00;;
66272;SDS011;58450;52.150;4.466;2023-06-10T12:09:13;5.57;;;3.22;;
66272;SDS011;58450;52.150;4.466;2023-06-10T12:11:44;4.78;;;3.00;;
66272;SDS011;58450;52.150;4.466;2023-06-10T12:14:13;3.03;;;2.58;;
66272;SDS011;58450;52.150;4.466;2023-06-10T12:16:41;5.60;;;2.70;;
66272;SDS011;58450;52.150;4.466;2023-06-10T12:19:16;5.72;;;2.72;;
66272;SDS011;58450;52.150;4.466;2023-06-10T12:21:43;4.75;;;2.92;;
66272;SDS011;58450;52.150;4.466;2023-06-10T12:24:11;3.85;;;2.88;;
66272;SDS011;58450;52.150;4.466;2023-06-10T12:26:39;4.22;;;3.00;;
66272;SDS011;58450;52.150;4.466;2023-06-10T12:29:21;3.72;;;3.00;;
66272;SDS011;58450;52.150;4.466;2023-06-10T12:31:58;4.32;;;2.80;;
66272;SDS011;58450;52.150;4.466;2023-06-10T12:34:37;4.32;;;2.92;;
66272;SDS011;58450;52.150;4.466;2023-06-10T12:37:09;5.03;;;3.05;;
66272;SDS011;58450;52.150;4.466;2023-06-10T12:39:40;5.78;;;2.70;;
66272;SDS011;58450;52.150;4.466;2023-06-10T12:42:08;6.57;;;3.05;;
66272;SDS011;58450;52.150;4.466;2023-06-10T12:44:39;4.97;;;3.30;;
66272;SDS011;58450;52.150;4.466;2023-06-10T12:47:08;4.30;;;2.78;;
66272;SDS011;58450;52.150;4.466;2023-06-10T12:49:39;4.68;;;2.85;;
66272;SDS011;58450;52.150;4.466;2023-06-10T12:52:06;4.90;;;2.88;;
66272;SDS011;58450;52.150;4.466;2023-06-10T12:54:34;5.88;;;3.00;;
66272;SDS011;58450;52.150;4.466;2023-06-10T12:57:02;4.72;;;2.90;;
66272;SDS011;58450;52.150;4.466;2023-06-10T12:59:30;5.07;;;2.72;;
66272;SDS011;58450;52.150;4.466;2023-06-10T13:01:59;4.30;;;2.90;;
66272;SDS011;58450;52.150;4.466;2023-06-10T13:04:27;4.53;;;2.80;;
66272;SDS011;58450;52.150;4.466;2023-06-10T13:06:54;4.22;;;2.65;;
66272;SDS011;58450;52.150;4.466;2023-06-10T13:09:21;4.35;;;2.72;;
66272;SDS011;58450;52.150;4.466;2023-06-10T13:11:49;4.57;;;2.60;;
66272;SDS011;58450;52.150;4.466;2023-06-10T13:14:18;4.03;;;2.60;;
66272;SDS011;58450;52.150;4.466;2023-06-10T13:16:46;3.47;;;2.70;;
66272;SDS011;58450;52.150;4.466;2023-06-10T13:19:14;5.07;;;2.50;;
66272;SDS011;58450;52.150;4.466;2023-06-10T13:21:42;5.55;;;3.00;;
66272;SDS011;58450;52.150;4.466;2023-06-10T13:24:09;4.97;;;2.75;;
66272;SDS011;58450;52.150;4.466;2023-06-10T13:26:37;4.30;;;2.85;;
66272;SDS011;58450;52.150;4.466;2023-06-10T13:29:04;4.07;;;2.80;;
66272;SDS011;58450;52.150;4.466;2023-06-10T13:31:33;4.97;;;2.75;;
66272;SDS011;58450;52.150;4.466;2023-06-10T13:34:01;4.28;;;2.72;;
66272;SDS011;58450;52.150;4.466;2023-06-10T13:36:30;4.93;;;2.75;;
66272;SDS011;58450;52.150;4.466;2023-06-10T13:38:57;2.85;;;2.35;;
66272;SDS011;58450;52.150;4.466;2023-06-10T13:41:25;5.50;;;3.00;;
66272;SDS011;58450;52.150;4.466;2023-06-10T13:43:54;4.72;;;2.75;;
66272;SDS011;58450;52.150;4.466;2023-06-10T13:46:22;4.47;;;2.75;;
66272;SDS011;58450;52.150;4.466;2023-06-10T13:48:49;4.13;;;2.60;;
66272;SDS011;58450;52.150;4.466;2023-06-10T13:51:17;4.72;;;2.60;;
66272;SDS011;58450;52.150;4.466;2023-06-10T13:53:45;4.30;;;2.28;;
66272;SDS011;58450;52.150;4.466;2023-06-10T13:56:13;5.97;;;2.90;;
66272;SDS011;58450;52.150;4.466;2023-06-10T13:58:41;4.22;;;2.67;;
66272;SDS011;58450;52.150;4.466;2023-06-10T14:01:09;3.42;;;2.45;;
66272;SDS011;58450;52.150;4.466;2023-06-10T14:03:36;4.50;;;2.88;;
66272;SDS011;58450;52.150;4.466;2023-06-10T14:06:04;5.22;;;2.92;;
66272;SDS011;58450;52.150;4.466;2023-06-10T14:08:32;5.30;;;3.10;;
66272;SDS011;58450;52.150;4.466;2023-06-10T14:11:01;7.25;;;3.30;;
66272;SDS011;58450;52.150;4.466;2023-06-10T14:13:29;4.65;;;3.15;;
66272;SDS011;58450;52.150;4.466;2023-06-10T14:15:57;6.25;;;3.03;;
66272;SDS011;58450;52.150;4.466;2023-06-10T14:18:28;4.75;;;3.17;;
66272;SDS011;58450;52.150;4.466;2023-06-10T14:20:55;4.15;;;3.00;;
66272;SDS011;58450;52.150;4.466;2023-06-10T14:23:23;4.78;;;3.10;;
66272;SDS011;58450;52.150;4.466;2023-06-10T14:25:51;4.38;;;2.95;;
66272;SDS011;58450;52.150;4.466;2023-06-10T14:28:20;5.07;;;3.15;;
66272;SDS011;58450;52.150;4.466;2023-06-10T14:30:47;4.85;;;3.03;;
66272;SDS011;58450;52.150;4.466;2023-06-10T14:33:15;5.70;;;3.05;;
66272;SDS011;58450;52.150;4.466;2023-06-10T14:35:42;4.25;;;2.97;;
66272;SDS011;58450;52.150;4.466;2023-06-10T14:38:10;4.38;;;2.80;;
66272;SDS011;58450;52.150;4.466;2023-06-10T14:40:37;4.85;;;2.97;;
66272;SDS011;58450;52.150;4.466;2023-06-10T14:43:05;4.55;;;2.90;;
66272;SDS011;58450;52.150;4.466;2023-06-10T14:45:37;4.28;;;2.80;;
66272;SDS011;58450;52.150;4.466;2023-06-10T14:48:05;4.28;;;2.78;;
66272;SDS011;58450;52.150;4.466;2023-06-10T14:50:34;4.65;;;2.90;;
66272;SDS011;58450;52.150;4.466;2023-06-10T14:53:02;5.47;;;3.10;;
66272;SDS011;58450;52.150;4.466;2023-06-10T14:55:30;3.92;;;3.00;;